sensor_id;sensor_type;location;lat;lon;timestamp;temperature;humidity
67364;HTU21D;54250;45.572;38.086;2022-10-22T00:01:26;7.74;83.76
67364;HTU21D;54250;45.572;38.086;2022-10-22T00:03:53;7.77;83.74
67364;HTU21D;54250;45.572;38.086;2022-10-22T00:06:19;7.78;83.78
67364;HTU21D;54250;45.572;38.086;2022-10-22T00:08:45;7.75;83.70
67364;HTU21D;54250;45.572;38.086;2022-10-22T00:11:16;7.71;83.74
67364;HTU21D;54250;45.572;38.086;2022-10-22T00:13:43;7.65;83.83
67364;HTU21D;54250;45.572;38.086;2022-10-22T00:16:10;7.60;83.90
67364;HTU21D;54250;45.572;38.086;2022-10-22T00:18:36;7.57;83.92
67364;HTU21D;54250;45.572;38.086;2022-10-22T00:21:03;7.54;83.91
67364;HTU21D;54250;45.572;38.086;2022-10-22T00:23:29;7.50;83.89
67364;HTU21D;54250;45.572;38.086;2022-10-22T00:25:55;7.50;83.89
67364;HTU21D;54250;45.572;38.086;2022-10-22T00:28:39;7.49;83.75
67364;HTU21D;54250;45.572;38.086;2022-10-22T00:31:06;7.53;83.70
67364;HTU21D;54250;45.572;38.086;2022-10-22T00:33:32;7.56;83.58
67364;HTU21D;54250;45.572;38.086;2022-10-22T00:36:16;7.58;83.51
67364;HTU21D;54250;45.572;38.086;2022-10-22T00:47:15;7.58;83.42
67364;HTU21D;54250;45.572;38.086;2022-10-22T00:49:43;7.60;83.45
67364;HTU21D;54250;45.572;38.086;2022-10-22T00:54:55;7.57;83.44
67364;HTU21D;54250;45.572;38.086;2022-10-22T00:57:22;7.50;83.55
67364;HTU21D;54250;45.572;38.086;2022-10-22T00:59:48;7.47;83.68
67364;HTU21D;54250;45.572;38.086;2022-10-22T01:04:59;7.43;83.72
67364;HTU21D;54250;45.572;38.086;2022-10-22T01:07:46;7.43;83.56
67364;HTU21D;54250;45.572;38.086;2022-10-22T01:10:22;7.42;83.55
67364;HTU21D;54250;45.572;38.086;2022-10-22T01:13:16;7.35;83.56
67364;HTU21D;54250;45.572;38.086;2022-10-22T01:27:10;7.08;83.95
67364;HTU21D;54250;45.572;38.086;2022-10-22T01:29:44;7.12;83.87
67364;HTU21D;54250;45.572;38.086;2022-10-22T01:32:15;7.14;83.74
67364;HTU21D;54250;45.572;38.086;2022-10-22T01:34:51;7.11;83.76
67364;HTU21D;54250;45.572;38.086;2022-10-22T01:37:20;7.07;83.83
67364;HTU21D;54250;45.572;38.086;2022-10-22T01:39:49;7.03;83.90
67364;HTU21D;54250;45.572;38.086;2022-10-22T01:45:18;7.01;83.81
67364;HTU21D;54250;45.572;38.086;2022-10-22T01:50:46;7.01;83.64
67364;HTU21D;54250;45.572;38.086;2022-10-22T01:53:27;7.01;83.65
67364;HTU21D;54250;45.572;38.086;2022-10-22T01:59:43;7.02;83.60
67364;HTU21D;54250;45.572;38.086;2022-10-22T02:02:27;6.99;83.59
67364;HTU21D;54250;45.572;38.086;2022-10-22T02:05:20;6.94;83.68
67364;HTU21D;54250;45.572;38.086;2022-10-22T02:08:09;6.83;83.98
67364;HTU21D;54250;45.572;38.086;2022-10-22T02:10:54;6.70;84.12
67364;HTU21D;54250;45.572;38.086;2022-10-22T02:13:28;6.59;84.41
67364;HTU21D;54250;45.572;38.086;2022-10-22T02:15:56;6.46;84.67
67364;HTU21D;54250;45.572;38.086;2022-10-22T02:18:26;6.39;84.76
67364;HTU21D;54250;45.572;38.086;2022-10-22T02:20:53;6.30;84.85
67364;HTU21D;54250;45.572;38.086;2022-10-22T02:23:29;6.30;84.60
67364;HTU21D;54250;45.572;38.086;2022-10-22T02:26:38;6.23;84.48
67364;HTU21D;54250;45.572;38.086;2022-10-22T02:31:31;6.21;84.45
67364;HTU21D;54250;45.572;38.086;2022-10-22T02:36:47;6.12;84.51
67364;HTU21D;54250;45.572;38.086;2022-10-22T02:39:14;6.13;84.43
67364;HTU21D;54250;45.572;38.086;2022-10-22T02:41:41;6.10;84.36
67364;HTU21D;54250;45.572;38.086;2022-10-22T02:44:09;6.08;84.43
67364;HTU21D;54250;45.572;38.086;2022-10-22T02:46:53;6.04;84.51
67364;HTU21D;54250;45.572;38.086;2022-10-22T02:49:20;6.04;84.47
67364;HTU21D;54250;45.572;38.086;2022-10-22T02:52:04;6.04;84.42
67364;HTU21D;54250;45.572;38.086;2022-10-22T02:54:30;6.06;84.32
67364;HTU21D;54250;45.572;38.086;2022-10-22T02:56:56;6.05;84.28
67364;HTU21D;54250;45.572;38.086;2022-10-22T02:59:22;5.96;84.45
67364;HTU21D;54250;45.572;38.086;2022-10-22T03:01:48;5.91;84.63
67364;HTU21D;54250;45.572;38.086;2022-10-22T03:04:14;5.90;84.57
67364;HTU21D;54250;45.572;38.086;2022-10-22T03:06:40;5.81;84.57
67364;HTU21D;54250;45.572;38.086;2022-10-22T03:09:09;5.70;84.82
67364;HTU21D;54250;45.572;38.086;2022-10-22T03:11:35;5.60;85.12
67364;HTU21D;54250;45.572;38.086;2022-10-22T03:14:20;5.55;85.61
67364;HTU21D;54250;45.572;38.086;2022-10-22T03:16:46;5.60;85.78
67364;HTU21D;54250;45.572;38.086;2022-10-22T03:19:12;5.66;85.30
67364;HTU21D;54250;45.572;38.086;2022-10-22T03:22:01;5.71;85.15
67364;HTU21D;54250;45.572;38.086;2022-10-22T03:24:35;5.74;84.90
67364;HTU21D;54250;45.572;38.086;2022-10-22T03:27:02;5.72;84.91
67364;HTU21D;54250;45.572;38.086;2022-10-22T03:29:47;5.76;84.89
67364;HTU21D;54250;45.572;38.086;2022-10-22T03:32:14;5.85;84.67
67364;HTU21D;54250;45.572;38.086;2022-10-22T03:34:40;5.94;84.58
67364;HTU21D;54250;45.572;38.086;2022-10-22T03:37:06;5.99;84.52
67364;HTU21D;54250;45.572;38.086;2022-10-22T03:39:34;6.04;84.58
67364;HTU21D;54250;45.572;38.086;2022-10-22T03:42:01;6.01;84.72
67364;HTU21D;54250;45.572;38.086;2022-10-22T03:44:28;5.99;84.77
67364;HTU21D;54250;45.572;38.086;2022-10-22T03:46:55;6.00;84.81
67364;HTU21D;54250;45.572;38.086;2022-10-22T03:49:21;6.04;84.81
67364;HTU21D;54250;45.572;38.086;2022-10-22T03:54:50;6.10;84.65
67364;HTU21D;54250;45.572;38.086;2022-10-22T03:57:16;6.14;84.66
67364;HTU21D;54250;45.572;38.086;2022-10-22T04:02:27;6.23;84.68
67364;HTU21D;54250;45.572;38.086;2022-10-22T04:04:53;6.27;84.60
67364;HTU21D;54250;45.572;38.086;2022-10-22T04:07:38;6.31;84.48
67364;HTU21D;54250;45.572;38.086;2022-10-22T04:10:04;6.37;84.50
67364;HTU21D;54250;45.572;38.086;2022-10-22T04:15:33;6.49;84.35
67364;HTU21D;54250;45.572;38.086;2022-10-22T04:17:59;6.56;84.32
67364;HTU21D;54250;45.572;38.086;2022-10-22T04:20:25;6.63;84.26
67364;HTU21D;54250;45.572;38.086;2022-10-22T04:22:54;6.73;84.16
67364;HTU21D;54250;45.572;38.086;2022-10-22T04:25:39;6.96;83.90
67364;HTU21D;54250;45.572;38.086;2022-10-22T04:28:06;7.03;83.71
67364;HTU21D;54250;45.572;38.086;2022-10-22T04:30:34;7.03;83.85
67364;HTU21D;54250;45.572;38.086;2022-10-22T04:33:00;7.08;83.98
67364;HTU21D;54250;45.572;38.086;2022-10-22T04:38:29;7.23;84.05
67364;HTU21D;54250;45.572;38.086;2022-10-22T04:40:55;7.27;83.96
67364;HTU21D;54250;45.572;38.086;2022-10-22T04:43:21;7.31;84.03
67364;HTU21D;54250;45.572;38.086;2022-10-22T04:45:47;7.37;84.14
67364;HTU21D;54250;45.572;38.086;2022-10-22T04:48:13;7.41;84.17
67364;HTU21D;54250;45.572;38.086;2022-10-22T04:50:39;7.44;84.04
67364;HTU21D;54250;45.572;38.086;2022-10-22T04:53:08;7.48;83.92
67364;HTU21D;54250;45.572;38.086;2022-10-22T04:55:43;7.55;83.90
67364;HTU21D;54250;45.572;38.086;2022-10-22T04:58:09;7.59;83.79
67364;HTU21D;54250;45.572;38.086;2022-10-22T05:00:35;7.64;83.78
67364;HTU21D;54250;45.572;38.086;2022-10-22T05:03:01;7.71;83.69
67364;HTU21D;54250;45.572;38.086;2022-10-22T05:05:27;7.74;83.71
67364;HTU21D;54250;45.572;38.086;2022-10-22T05:07:53;7.83;83.67
67364;HTU21D;54250;45.572;38.086;2022-10-22T05:10:19;7.96;83.59
67364;HTU21D;54250;45.572;38.086;2022-10-22T05:13:04;8.11;83.29
67364;HTU21D;54250;45.572;38.086;2022-10-22T05:15:30;8.13;83.30
67364;HTU21D;54250;45.572;38.086;2022-10-22T05:17:56;8.17;83.34
67364;HTU21D;54250;45.572;38.086;2022-10-22T05:20:22;8.17;83.45
67364;HTU21D;54250;45.572;38.086;2022-10-22T05:22:48;8.23;83.49
67364;HTU21D;54250;45.572;38.086;2022-10-22T05:25:14;8.32;83.41
67364;HTU21D;54250;45.572;38.086;2022-10-22T05:27:40;8.41;83.31
67364;HTU21D;54250;45.572;38.086;2022-10-22T05:30:06;8.49;83.20
67364;HTU21D;54250;45.572;38.086;2022-10-22T05:32:34;8.60;83.12
67364;HTU21D;54250;45.572;38.086;2022-10-22T05:35:00;8.74;83.09
67364;HTU21D;54250;45.572;38.086;2022-10-22T05:37:26;9.04;82.65
67364;HTU21D;54250;45.572;38.086;2022-10-22T05:39:52;9.34;82.13
67364;HTU21D;54250;45.572;38.086;2022-10-22T05:42:18;9.48;81.88
67364;HTU21D;54250;45.572;38.086;2022-10-22T05:44:43;9.59;81.91
67364;HTU21D;54250;45.572;38.086;2022-10-22T05:47:09;9.67;81.88
67364;HTU21D;54250;45.572;38.086;2022-10-22T05:49:35;9.83;81.93
67364;HTU21D;54250;45.572;38.086;2022-10-22T05:52:01;10.10;81.47
67364;HTU21D;54250;45.572;38.086;2022-10-22T05:54:27;10.38;81.07
67364;HTU21D;54250;45.572;38.086;2022-10-22T05:56:53;10.67;80.72
67364;HTU21D;54250;45.572;38.086;2022-10-22T05:59:20;10.94;80.38
67364;HTU21D;54250;45.572;38.086;2022-10-22T06:01:46;11.09;80.39
67364;HTU21D;54250;45.572;38.086;2022-10-22T06:04:12;11.33;80.21
67364;HTU21D;54250;45.572;38.086;2022-10-22T06:06:46;11.61;80.03
67364;HTU21D;54250;45.572;38.086;2022-10-22T06:09:20;11.96;79.47
67364;HTU21D;54250;45.572;38.086;2022-10-22T06:11:47;11.91;79.67
67364;HTU21D;54250;45.572;38.086;2022-10-22T06:14:14;12.12;79.85
67364;HTU21D;54250;45.572;38.086;2022-10-22T06:16:40;11.96;79.53
67364;HTU21D;54250;45.572;38.086;2022-10-22T06:19:07;11.49;80.71
67364;HTU21D;54250;45.572;38.086;2022-10-22T06:21:33;11.11;81.60
67364;HTU21D;54250;45.572;38.086;2022-10-22T06:23:59;10.99;82.06
67364;HTU21D;54250;45.572;38.086;2022-10-22T06:26:27;11.22;81.82
67364;HTU21D;54250;45.572;38.086;2022-10-22T06:28:54;11.74;80.45
67364;HTU21D;54250;45.572;38.086;2022-10-22T06:31:21;12.03;79.68
67364;HTU21D;54250;45.572;38.086;2022-10-22T06:33:47;12.18;79.67
67364;HTU21D;54250;45.572;38.086;2022-10-22T06:36:16;12.40;79.24
67364;HTU21D;54250;45.572;38.086;2022-10-22T06:38:42;12.60;79.11
67364;HTU21D;54250;45.572;38.086;2022-10-22T06:41:10;13.00;78.59
67364;HTU21D;54250;45.572;38.086;2022-10-22T06:43:37;14.41;75.39
67364;HTU21D;54250;45.572;38.086;2022-10-22T06:46:05;14.54;75.41
67364;HTU21D;54250;45.572;38.086;2022-10-22T06:48:32;14.54;76.01
67364;HTU21D;54250;45.572;38.086;2022-10-22T06:51:01;14.70;76.08
67364;HTU21D;54250;45.572;38.086;2022-10-22T06:53:28;15.02;75.66
67364;HTU21D;54250;45.572;38.086;2022-10-22T06:55:54;15.21;75.55
67364;HTU21D;54250;45.572;38.086;2022-10-22T06:58:20;15.26;75.56
67364;HTU21D;54250;45.572;38.086;2022-10-22T07:00:46;15.17;75.86
67364;HTU21D;54250;45.572;38.086;2022-10-22T07:03:13;15.00;76.36
67364;HTU21D;54250;45.572;38.086;2022-10-22T07:05:40;14.74;76.86
67364;HTU21D;54250;45.572;38.086;2022-10-22T07:08:07;14.58;77.28
67364;HTU21D;54250;45.572;38.086;2022-10-22T07:10:33;14.43;77.28
67364;HTU21D;54250;45.572;38.086;2022-10-22T07:12:59;14.30;77.24
67364;HTU21D;54250;45.572;38.086;2022-10-22T07:15:25;14.44;77.09
67364;HTU21D;54250;45.572;38.086;2022-10-22T07:17:51;14.87;76.48
67364;HTU21D;54250;45.572;38.086;2022-10-22T07:20:17;15.55;74.68
67364;HTU21D;54250;45.572;38.086;2022-10-22T07:22:45;15.89;74.22
67364;HTU21D;54250;45.572;38.086;2022-10-22T07:25:11;16.26;73.32
67364;HTU21D;54250;45.572;38.086;2022-10-22T07:27:37;16.20;73.35
67364;HTU21D;54250;45.572;38.086;2022-10-22T07:30:04;16.15;73.79
67364;HTU21D;54250;45.572;38.086;2022-10-22T07:32:30;16.33;73.65
67364;HTU21D;54250;45.572;38.086;2022-10-22T07:34:56;16.21;73.35
67364;HTU21D;54250;45.572;38.086;2022-10-22T07:37:22;16.22;73.60
67364;HTU21D;54250;45.572;38.086;2022-10-22T07:39:48;16.40;73.24
67364;HTU21D;54250;45.572;38.086;2022-10-22T07:42:14;16.70;72.66
67364;HTU21D;54250;45.572;38.086;2022-10-22T07:44:40;18.24;70.56
67364;HTU21D;54250;45.572;38.086;2022-10-22T07:47:06;20.03;66.04
67364;HTU21D;54250;45.572;38.086;2022-10-22T07:49:32;20.06;66.41
67364;HTU21D;54250;45.572;38.086;2022-10-22T07:51:58;19.73;67.37
67364;HTU21D;54250;45.572;38.086;2022-10-22T07:54:24;19.43;68.46
67364;HTU21D;54250;45.572;38.086;2022-10-22T07:56:50;19.09;69.07
67364;HTU21D;54250;45.572;38.086;2022-10-22T07:59:16;19.06;69.03
67364;HTU21D;54250;45.572;38.086;2022-10-22T08:01:42;19.18;68.42
67364;HTU21D;54250;45.572;38.086;2022-10-22T08:04:08;18.86;68.94
67364;HTU21D;54250;45.572;38.086;2022-10-22T08:06:35;18.36;69.49
67364;HTU21D;54250;45.572;38.086;2022-10-22T08:09:01;18.29;69.74
67364;HTU21D;54250;45.572;38.086;2022-10-22T08:11:27;18.26;69.76
67364;HTU21D;54250;45.572;38.086;2022-10-22T08:13:53;18.53;69.00
67364;HTU21D;54250;45.572;38.086;2022-10-22T08:16:19;18.68;68.36
67364;HTU21D;54250;45.572;38.086;2022-10-22T08:18:45;18.40;68.59
67364;HTU21D;54250;45.572;38.086;2022-10-22T08:21:12;18.53;67.84
67364;HTU21D;54250;45.572;38.086;2022-10-22T08:23:38;19.70;66.46
67364;HTU21D;54250;45.572;38.086;2022-10-22T08:26:04;22.69;59.48
67364;HTU21D;54250;45.572;38.086;2022-10-22T08:28:32;22.88;59.17
67364;HTU21D;54250;45.572;38.086;2022-10-22T08:31:08;22.10;60.64
67364;HTU21D;54250;45.572;38.086;2022-10-22T08:33:35;20.77;62.86
67364;HTU21D;54250;45.572;38.086;2022-10-22T08:36:01;19.56;65.12
67364;HTU21D;54250;45.572;38.086;2022-10-22T08:38:27;19.68;64.84
67364;HTU21D;54250;45.572;38.086;2022-10-22T08:41:11;20.28;62.46
67364;HTU21D;54250;45.572;38.086;2022-10-22T08:47:00;20.31;62.79
67364;HTU21D;54250;45.572;38.086;2022-10-22T08:49:34;20.41;62.21
67364;HTU21D;54250;45.572;38.086;2022-10-22T08:52:02;20.41;61.85
67364;HTU21D;54250;45.572;38.086;2022-10-22T08:54:48;20.16;61.80
67364;HTU21D;54250;45.572;38.086;2022-10-22T09:06:31;19.73;62.24
67364;HTU21D;54250;45.572;38.086;2022-10-22T09:08:49;19.76;62.06
67364;HTU21D;54250;45.572;38.086;2022-10-22T09:11:30;20.54;61.09
67364;HTU21D;54250;45.572;38.086;2022-10-22T09:13:58;23.72;55.49
67364;HTU21D;54250;45.572;38.086;2022-10-22T09:16:54;26.64;51.01
67364;HTU21D;54250;45.572;38.086;2022-10-22T09:19:51;28.03;49.07
67364;HTU21D;54250;45.572;38.086;2022-10-22T09:22:34;28.83;48.15
67364;HTU21D;54250;45.572;38.086;2022-10-22T09:25:23;29.79;47.38
67364;HTU21D;54250;45.572;38.086;2022-10-22T09:27:50;30.28;46.31
67364;HTU21D;54250;45.572;38.086;2022-10-22T09:30:25;30.52;45.93
67364;HTU21D;54250;45.572;38.086;2022-10-22T09:35:59;31.11;45.26
67364;HTU21D;54250;45.572;38.086;2022-10-22T09:38:33;31.36;44.19
67364;HTU21D;54250;45.572;38.086;2022-10-22T09:41:02;31.40;43.87
67364;HTU21D;54250;45.572;38.086;2022-10-22T09:43:30;31.30;42.72
67364;HTU21D;54250;45.572;38.086;2022-10-22T09:46:03;31.13;42.10
67364;HTU21D;54250;45.572;38.086;2022-10-22T09:48:39;31.21;41.98
67364;HTU21D;54250;45.572;38.086;2022-10-22T09:51:45;31.14;41.20
67364;HTU21D;54250;45.572;38.086;2022-10-22T09:54:01;30.24;42.35
67364;HTU21D;54250;45.572;38.086;2022-10-22T09:56:32;29.59;42.84
67364;HTU21D;54250;45.572;38.086;2022-10-22T09:59:02;29.20;43.39
67364;HTU21D;54250;45.572;38.086;2022-10-22T10:01:32;29.50;42.52
67364;HTU21D;54250;45.572;38.086;2022-10-22T10:04:03;29.61;42.22
67364;HTU21D;54250;45.572;38.086;2022-10-22T10:06:31;29.67;41.49
67364;HTU21D;54250;45.572;38.086;2022-10-22T10:09:00;29.30;41.16
67364;HTU21D;54250;45.572;38.086;2022-10-22T10:11:49;28.99;41.74
67364;HTU21D;54250;45.572;38.086;2022-10-22T10:22:56;27.23;44.54
67364;HTU21D;54250;45.572;38.086;2022-10-22T10:37:14;24.46;47.34
67364;HTU21D;54250;45.572;38.086;2022-10-22T10:40:06;23.11;49.34
67364;HTU21D;54250;45.572;38.086;2022-10-22T10:43:17;22.03;50.79
67364;HTU21D;54250;45.572;38.086;2022-10-22T10:48:49;20.13;53.05
67364;HTU21D;54250;45.572;38.086;2022-10-22T10:54:06;19.32;54.23
67364;HTU21D;54250;45.572;38.086;2022-10-22T10:57:15;18.92;54.61
67364;HTU21D;54250;45.572;38.086;2022-10-22T10:59:44;18.26;54.97
67364;HTU21D;54250;45.572;38.086;2022-10-22T11:02:43;17.96;55.52
67364;HTU21D;54250;45.572;38.086;2022-10-22T11:08:11;17.98;55.64
67364;HTU21D;54250;45.572;38.086;2022-10-22T11:10:40;17.96;55.62
67364;HTU21D;54250;45.572;38.086;2022-10-22T11:13:40;17.98;55.51
67364;HTU21D;54250;45.572;38.086;2022-10-22T11:18:45;18.04;56.04
67364;HTU21D;54250;45.572;38.086;2022-10-22T11:26:48;17.99;56.27
67364;HTU21D;54250;45.572;38.086;2022-10-22T11:29:23;18.07;56.21
67364;HTU21D;54250;45.572;38.086;2022-10-22T11:31:51;17.93;56.32
67364;HTU21D;54250;45.572;38.086;2022-10-22T11:34:32;17.66;56.59
67364;HTU21D;54250;45.572;38.086;2022-10-22T11:36:58;17.46;57.23
67364;HTU21D;54250;45.572;38.086;2022-10-22T11:39:38;17.31;57.62
67364;HTU21D;54250;45.572;38.086;2022-10-22T11:42:18;17.11;57.60
67364;HTU21D;54250;45.572;38.086;2022-10-22T11:45:25;16.89;58.13
67364;HTU21D;54250;45.572;38.086;2022-10-22T11:50:57;16.50;58.54
67364;HTU21D;54250;45.572;38.086;2022-10-22T11:53:34;16.39;58.78
67364;HTU21D;54250;45.572;38.086;2022-10-22T11:58:42;16.18;59.08
67364;HTU21D;54250;45.572;38.086;2022-10-22T12:01:24;16.04;59.27
67364;HTU21D;54250;45.572;38.086;2022-10-22T12:06:27;15.67;59.57
67364;HTU21D;54250;45.572;38.086;2022-10-22T12:09:00;15.39;59.99
67364;HTU21D;54250;45.572;38.086;2022-10-22T12:11:44;15.12;60.22
67364;HTU21D;54250;45.572;38.086;2022-10-22T12:14:32;14.99;60.24
67364;HTU21D;54250;45.572;38.086;2022-10-22T12:19:36;14.86;60.22
67364;HTU21D;54250;45.572;38.086;2022-10-22T12:24:36;14.79;60.17
67364;HTU21D;54250;45.572;38.086;2022-10-22T12:27:03;14.80;60.18
67364;HTU21D;54250;45.572;38.086;2022-10-22T12:29:31;14.79;60.25
67364;HTU21D;54250;45.572;38.086;2022-10-22T12:32:03;14.75;60.21
67364;HTU21D;54250;45.572;38.086;2022-10-22T12:34:29;14.67;60.47
67364;HTU21D;54250;45.572;38.086;2022-10-22T12:36:55;14.60;60.72
67364;HTU21D;54250;45.572;38.086;2022-10-22T12:39:25;14.54;60.93
67364;HTU21D;54250;45.572;38.086;2022-10-22T12:41:52;14.49;60.96
67364;HTU21D;54250;45.572;38.086;2022-10-22T12:44:19;14.41;61.15
67364;HTU21D;54250;45.572;38.086;2022-10-22T12:46:47;14.41;61.41
67364;HTU21D;54250;45.572;38.086;2022-10-22T12:49:38;14.38;61.19
67364;HTU21D;54250;45.572;38.086;2022-10-22T12:52:07;14.39;61.30
67364;HTU21D;54250;45.572;38.086;2022-10-22T12:54:37;14.33;61.34
67364;HTU21D;54250;45.572;38.086;2022-10-22T12:57:03;14.28;61.46
67364;HTU21D;54250;45.572;38.086;2022-10-22T12:59:34;14.26;61.46
67364;HTU21D;54250;45.572;38.086;2022-10-22T13:02:02;14.24;61.54
67364;HTU21D;54250;45.572;38.086;2022-10-22T13:04:34;14.21;61.63
67364;HTU21D;54250;45.572;38.086;2022-10-22T13:09:45;13.97;62.03
67364;HTU21D;54250;45.572;38.086;2022-10-22T13:12:12;13.84;62.29
67364;HTU21D;54250;45.572;38.086;2022-10-22T13:14:44;13.69;62.53
67364;HTU21D;54250;45.572;38.086;2022-10-22T13:17:18;13.60;62.69
67364;HTU21D;54250;45.572;38.086;2022-10-22T13:24:55;13.34;62.86
67364;HTU21D;54250;45.572;38.086;2022-10-22T13:27:24;13.27;62.87
67364;HTU21D;54250;45.572;38.086;2022-10-22T13:29:52;13.24;62.88
67364;HTU21D;54250;45.572;38.086;2022-10-22T13:32:31;13.16;62.92
67364;HTU21D;54250;45.572;38.086;2022-10-22T13:34:59;13.10;63.08
67364;HTU21D;54250;45.572;38.086;2022-10-22T13:37:27;13.09;63.05
67364;HTU21D;54250;45.572;38.086;2022-10-22T13:39:54;13.10;62.96
67364;HTU21D;54250;45.572;38.086;2022-10-22T13:42:20;13.15;62.86
67364;HTU21D;54250;45.572;38.086;2022-10-22T13:44:49;13.19;62.71
67364;HTU21D;54250;45.572;38.086;2022-10-22T13:47:23;13.21;62.70
67364;HTU21D;54250;45.572;38.086;2022-10-22T13:49:52;13.20;62.79
67364;HTU21D;54250;45.572;38.086;2022-10-22T13:52:37;13.18;62.81
67364;HTU21D;54250;45.572;38.086;2022-10-22T13:55:22;13.11;62.92
67364;HTU21D;54250;45.572;38.086;2022-10-22T13:57:55;13.02;63.19
67364;HTU21D;54250;45.572;38.086;2022-10-22T14:00:22;12.86;63.51
67364;HTU21D;54250;45.572;38.086;2022-10-22T14:02:50;12.70;63.87
67364;HTU21D;54250;45.572;38.086;2022-10-22T14:05:17;12.51;64.16
67364;HTU21D;54250;45.572;38.086;2022-10-22T14:07:44;12.38;64.40
67364;HTU21D;54250;45.572;38.086;2022-10-22T14:12:44;12.06;65.00
67364;HTU21D;54250;45.572;38.086;2022-10-22T14:15:12;11.92;65.15
67364;HTU21D;54250;45.572;38.086;2022-10-22T14:17:39;11.82;65.36
67364;HTU21D;54250;45.572;38.086;2022-10-22T14:20:19;11.72;65.40
67364;HTU21D;54250;45.572;38.086;2022-10-22T14:22:48;11.60;65.55
67364;HTU21D;54250;45.572;38.086;2022-10-22T14:25:22;11.44;65.75
67364;HTU21D;54250;45.572;38.086;2022-10-22T14:27:49;11.27;66.07
67364;HTU21D;54250;45.572;38.086;2022-10-22T14:30:19;11.10;66.26
67364;HTU21D;54250;45.572;38.086;2022-10-22T14:32:45;10.90;66.52
67364;HTU21D;54250;45.572;38.086;2022-10-22T14:35:16;10.71;66.80
67364;HTU21D;54250;45.572;38.086;2022-10-22T14:37:42;10.57;67.04
67364;HTU21D;54250;45.572;38.086;2022-10-22T14:40:16;10.45;67.18
67364;HTU21D;54250;45.572;38.086;2022-10-22T14:42:47;10.34;67.32
67364;HTU21D;54250;45.572;38.086;2022-10-22T14:47:42;10.15;67.50
67364;HTU21D;54250;45.572;38.086;2022-10-22T14:50:08;10.08;67.64
67364;HTU21D;54250;45.572;38.086;2022-10-22T14:52:38;9.97;67.85
67364;HTU21D;54250;45.572;38.086;2022-10-22T14:55:07;9.94;68.06
67364;HTU21D;54250;45.572;38.086;2022-10-22T14:57:33;9.90;68.06
67364;HTU21D;54250;45.572;38.086;2022-10-22T14:59:59;9.92;68.12
67364;HTU21D;54250;45.572;38.086;2022-10-22T15:02:25;9.88;68.04
67364;HTU21D;54250;45.572;38.086;2022-10-22T15:04:51;9.83;68.14
67364;HTU21D;54250;45.572;38.086;2022-10-22T15:07:17;9.77;68.22
67364;HTU21D;54250;45.572;38.086;2022-10-22T15:09:45;9.70;68.29
67364;HTU21D;54250;45.572;38.086;2022-10-22T15:12:11;9.67;68.46
67364;HTU21D;54250;45.572;38.086;2022-10-22T15:14:37;9.66;68.55
67364;HTU21D;54250;45.572;38.086;2022-10-22T15:17:03;9.67;68.53
67364;HTU21D;54250;45.572;38.086;2022-10-22T15:19:29;9.65;68.51
67364;HTU21D;54250;45.572;38.086;2022-10-22T15:21:55;9.56;68.66
67364;HTU21D;54250;45.572;38.086;2022-10-22T15:24:21;9.49;68.86
67364;HTU21D;54250;45.572;38.086;2022-10-22T15:26:47;9.44;69.04
67364;HTU21D;54250;45.572;38.086;2022-10-22T15:29:15;9.44;69.09
67364;HTU21D;54250;45.572;38.086;2022-10-22T15:31:48;9.51;69.28
67364;HTU21D;54250;45.572;38.086;2022-10-22T15:34:21;9.57;69.48
67364;HTU21D;54250;45.572;38.086;2022-10-22T15:36:48;9.62;69.58
67364;HTU21D;54250;45.572;38.086;2022-10-22T15:39:14;9.62;69.66
67364;HTU21D;54250;45.572;38.086;2022-10-22T15:41:40;9.63;69.71
67364;HTU21D;54250;45.572;38.086;2022-10-22T15:44:07;9.65;69.94
67364;HTU21D;54250;45.572;38.086;2022-10-22T15:46:34;9.65;69.98
67364;HTU21D;54250;45.572;38.086;2022-10-22T15:49:00;9.64;69.99
67364;HTU21D;54250;45.572;38.086;2022-10-22T15:51:26;9.64;70.23
67364;HTU21D;54250;45.572;38.086;2022-10-22T15:53:55;9.65;70.17
67364;HTU21D;54250;45.572;38.086;2022-10-22T15:56:22;9.63;70.21
67364;HTU21D;54250;45.572;38.086;2022-10-22T15:58:52;9.62;70.33
67364;HTU21D;54250;45.572;38.086;2022-10-22T16:01:18;9.61;70.39
67364;HTU21D;54250;45.572;38.086;2022-10-22T16:03:44;9.55;70.55
67364;HTU21D;54250;45.572;38.086;2022-10-22T16:06:10;9.49;70.77
67364;HTU21D;54250;45.572;38.086;2022-10-22T16:08:37;9.45;70.82
67364;HTU21D;54250;45.572;38.086;2022-10-22T16:11:03;9.38;70.91
67364;HTU21D;54250;45.572;38.086;2022-10-22T16:13:31;9.32;71.23
67364;HTU21D;54250;45.572;38.086;2022-10-22T16:15:57;9.26;71.45
67364;HTU21D;54250;45.572;38.086;2022-10-22T16:18:23;9.19;71.49
67364;HTU21D;54250;45.572;38.086;2022-10-22T16:20:49;9.10;71.61
67364;HTU21D;54250;45.572;38.086;2022-10-22T16:23:15;9.05;71.68
67364;HTU21D;54250;45.572;38.086;2022-10-22T16:25:44;9.00;71.94
67364;HTU21D;54250;45.572;38.086;2022-10-22T16:28:11;8.96;72.09
67364;HTU21D;54250;45.572;38.086;2022-10-22T16:30:38;8.90;72.03
67364;HTU21D;54250;45.572;38.086;2022-10-22T16:33:05;8.82;72.03
67364;HTU21D;54250;45.572;38.086;2022-10-22T16:35:31;8.77;72.29
67364;HTU21D;54250;45.572;38.086;2022-10-22T16:37:58;8.70;72.27
67364;HTU21D;54250;45.572;38.086;2022-10-22T16:40:24;8.64;72.45
67364;HTU21D;54250;45.572;38.086;2022-10-22T16:42:50;8.64;72.48
67364;HTU21D;54250;45.572;38.086;2022-10-22T16:45:16;8.62;72.50
67364;HTU21D;54250;45.572;38.086;2022-10-22T16:47:42;8.61;72.39
67364;HTU21D;54250;45.572;38.086;2022-10-22T16:50:11;8.58;72.32
67364;HTU21D;54250;45.572;38.086;2022-10-22T16:52:37;8.53;72.49
67364;HTU21D;54250;45.572;38.086;2022-10-22T16:55:04;8.51;72.68
67364;HTU21D;54250;45.572;38.086;2022-10-22T16:57:30;8.49;72.58
67364;HTU21D;54250;45.572;38.086;2022-10-22T16:59:56;8.48;72.54
67364;HTU21D;54250;45.572;38.086;2022-10-22T17:02:22;8.49;72.67
67364;HTU21D;54250;45.572;38.086;2022-10-22T17:04:48;8.46;72.74
67364;HTU21D;54250;45.572;38.086;2022-10-22T17:07:14;8.44;73.05
67364;HTU21D;54250;45.572;38.086;2022-10-22T17:09:41;8.41;73.01
67364;HTU21D;54250;45.572;38.086;2022-10-22T17:12:07;8.38;73.38
67364;HTU21D;54250;45.572;38.086;2022-10-22T17:14:35;8.38;73.52
67364;HTU21D;54250;45.572;38.086;2022-10-22T17:17:01;8.34;73.50
67364;HTU21D;54250;45.572;38.086;2022-10-22T17:19:27;8.32;73.62
67364;HTU21D;54250;45.572;38.086;2022-10-22T17:21:53;8.29;74.10
67364;HTU21D;54250;45.572;38.086;2022-10-22T17:24:19;8.24;74.31
67364;HTU21D;54250;45.572;38.086;2022-10-22T17:26:45;8.26;74.25
67364;HTU21D;54250;45.572;38.086;2022-10-22T17:29:12;8.26;74.61
67364;HTU21D;54250;45.572;38.086;2022-10-22T17:31:40;8.20;74.23
67364;HTU21D;54250;45.572;38.086;2022-10-22T17:34:09;8.17;74.42
67364;HTU21D;54250;45.572;38.086;2022-10-22T17:36:36;8.17;74.56
67364;HTU21D;54250;45.572;38.086;2022-10-22T17:39:05;8.21;74.67